Time;durP1;ratioP1;P1;durP2;ratioP2;P2;SDS_P1;SDS_P2;PMS_P1;PMS_P2;Temp;Humidity;BMP_temperature;BMP_pressure;BME280_temperature;BME280_humidity;BME280_pressure;Samples;Min_cycle;Max_cycle;Signal;HPM_P1;HPM_P2
2023/06/06 00:02:19;;;;;;;7.47;5.50;;;;;;;11.50;100.00;101636.03;4964572;28;20039;-75
2023/06/06 00:04:49;;;;;;;11.30;5.38;;;;;;;11.46;100.00;101627.44;4951622;28;20152;-75
2023/06/06 00:07:16;;;;;;;9.05;4.95;;;;;;;11.44;100.00;101623.25;4987265;28;20133;-75
2023/06/06 00:09:42;;;;;;;6.90;4.80;;;;;;;11.43;100.00;101617.06;4986933;28;20026;-75
2023/06/06 00:12:12;;;;;;;7.07;4.88;;;;;;;11.41;100.00;101614.50;4992255;28;20533;-75
2023/06/06 00:14:39;;;;;;;6.85;4.90;;;;;;;11.40;100.00;101615.53;4969092;28;20030;-75
2023/06/06 00:17:04;;;;;;;7.70;5.45;;;;;;;11.35;100.00;101603.56;4988285;28;20305;-75
2023/06/06 00:19:32;;;;;;;6.87;5.20;;;;;;;11.34;100.00;101597.38;4975891;28;20019;-75
2023/06/06 00:21:58;;;;;;;10.18;5.38;;;;;;;11.32;100.00;101609.22;4987007;28;20555;-75
2023/06/06 00:24:24;;;;;;;8.77;5.25;;;;;;;11.27;100.00;101600.78;4987011;28;20084;-75
2023/06/06 00:26:50;;;;;;;11.18;4.65;;;;;;;11.25;100.00;101603.59;4965730;28;20031;-75
2023/06/06 00:29:16;;;;;;;12.73;5.93;;;;;;;11.22;100.00;101608.41;4970889;28;20109;-75
2023/06/06 00:31:41;;;;;;;10.23;5.50;;;;;;;11.21;100.00;101618.25;4970024;28;20084;-75
2023/06/06 00:34:07;;;;;;;7.83;6.10;;;;;;;11.21;100.00;101620.91;4968519;28;20502;-75
2023/06/06 00:36:32;;;;;;;10.20;6.27;;;;;;;11.16;100.00;101616.00;4964920;28;20110;-75
2023/06/06 00:38:57;;;;;;;7.83;5.60;;;;;;;11.13;100.00;101607.44;4966850;28;20038;-75
2023/06/06 00:41:23;;;;;;;9.20;6.35;;;;;;;11.08;100.00;101613.22;4997525;28;20436;-75
2023/06/06 00:43:48;;;;;;;10.73;7.23;;;;;;;11.06;100.00;101625.06;4970120;28;20511;-75
2023/06/06 00:46:15;;;;;;;12.33;5.63;;;;;;;11.04;100.00;101629.69;4954551;28;20068;-75
2023/06/06 00:48:41;;;;;;;7.90;5.97;;;;;;;11.01;100.00;101613.97;4973743;28;20515;-75
2023/06/06 00:51:08;;;;;;;10.93;5.87;;;;;;;11.01;100.00;101617.47;4992847;28;20066;-75
2023/06/06 00:53:34;;;;;;;11.13;6.20;;;;;;;11.05;100.00;101624.22;4990466;28;20105;-75
2023/06/06 00:56:00;;;;;;;9.98;5.85;;;;;;;10.98;100.00;101623.94;4951576;28;20063;-75
2023/06/06 00:58:26;;;;;;;10.20;7.00;;;;;;;11.05;100.00;101632.22;4970228;28;20574;-75
2023/06/06 01:00:54;;;;;;;11.80;6.20;;;;;;;10.93;100.00;101625.34;4970064;28;20026;-75
2023/06/06 01:03:20;;;;;;;9.07;6.25;;;;;;;10.86;100.00;101618.88;4963444;28;20042;-75
2023/06/06 01:05:46;;;;;;;8.43;5.90;;;;;;;10.83;100.00;101619.19;4985145;28;20034;-75
2023/06/06 01:08:12;;;;;;;8.70;6.03;;;;;;;10.77;100.00;101604.56;4997734;28;20064;-75
2023/06/06 01:10:39;;;;;;;12.93;6.20;;;;;;;10.79;100.00;101613.25;4981666;28;20493;-75
2023/06/06 01:13:40;;;;;;;10.02;6.25;;;;;;;10.77;100.00;101604.56;4974266;28;20114;-75
2023/06/06 01:16:13;;;;;;;6.90;5.55;;;;;;;10.74;100.00;101610.19;4955678;28;20125;-75
2023/06/06 01:18:41;;;;;;;10.10;5.45;;;;;;;10.72;100.00;101601.47;4989159;28;20034;-75
2023/06/06 01:21:06;;;;;;;8.05;5.88;;;;;;;10.70;100.00;101585.59;4982762;28;20036;-75
2023/06/06 01:23:34;;;;;;;7.47;5.47;;;;;;;10.68;100.00;101589.41;4979105;28;20049;-74
2023/06/06 01:26:05;;;;;;;11.35;6.32;;;;;;;10.72;100.00;101606.81;4970894;28;20658;-76
2023/06/06 01:28:31;;;;;;;7.63;5.40;;;;;;;10.64;100.00;101606.69;4989831;28;20026;-75
2023/06/06 01:30:57;;;;;;;8.60;6.07;;;;;;;10.62;100.00;101606.81;4974685;28;20028;-74
2023/06/06 01:33:31;;;;;;;9.32;6.22;;;;;;;10.57;100.00;101599.25;4979212;28;20468;-75
2023/06/06 01:36:11;;;;;;;10.02;6.25;;;;;;;10.59;100.00;101609.78;4972997;28;20476;-75
2023/06/06 01:38:47;;;;;;;12.50;6.15;;;;;;;10.57;100.00;101615.25;4995165;28;20042;-75
2023/06/06 01:41:16;;;;;;;9.07;5.97;;;;;;;10.52;100.00;101614.84;4984500;28;20061;-75
2023/06/06 01:43:45;;;;;;;12.25;6.32;;;;;;;10.50;100.00;101607.97;4982445;28;20026;-75
2023/06/06 01:46:12;;;;;;;7.43;5.50;;;;;;;10.45;100.00;101605.72;4954559;28;20518;-75
2023/06/06 01:48:38;;;;;;;11.40;6.22;;;;;;;10.47;100.00;101602.91;4998232;28;20552;-75
2023/06/06 01:51:04;;;;;;;7.70;5.40;;;;;;;10.43;100.00;101602.34;4980868;28;20022;-75
2023/06/06 01:53:29;;;;;;;8.80;5.57;;;;;;;10.42;100.00;101602.47;4993377;28;20022;-75
2023/06/06 01:55:55;;;;;;;8.47;5.73;;;;;;;10.42;100.00;101598.00;4974007;28;20579;-74
2023/06/06 01:58:20;;;;;;;11.40;6.15;;;;;;;10.39;100.00;101590.25;4951564;28;20067;-75
2023/06/06 02:00:46;;;;;;;8.57;5.37;;;;;;;10.38;100.00;101601.91;4951458;28;20134;-75
2023/06/06 02:03:11;;;;;;;8.03;5.30;;;;;;;10.36;100.00;101606.56;4973979;28;20034;-74
2023/06/06 02:05:38;;;;;;;10.85;6.93;;;;;;;10.36;100.00;101609.22;4988219;28;20174;-75
2023/06/06 02:08:04;;;;;;;8.90;5.63;;;;;;;10.35;100.00;101615.56;4971065;28;20035;-75
2023/06/06 02:10:30;;;;;;;12.70;7.20;;;;;;;10.31;100.00;101616.81;4967531;28;20030;-75
2023/06/06 02:12:55;;;;;;;9.37;6.07;;;;;;;10.31;100.00;101608.81;4952605;28;20049;-75
2023/06/06 02:15:29;;;;;;;10.32;6.15;;;;;;;10.34;100.00;101605.84;4999221;28;20034;-75
2023/06/06 02:17:55;;;;;;;8.65;6.13;;;;;;;10.30;100.00;101610.63;4998152;28;20492;-75
2023/06/06 02:20:20;;;;;;;12.93;6.88;;;;;;;10.29;100.00;101610.78;4972048;28;20535;-75
2023/06/06 02:22:46;;;;;;;10.73;6.07;;;;;;;10.29;100.00;101602.75;4965265;28;20053;-74
2023/06/06 02:25:13;;;;;;;13.45;6.78;;;;;;;10.30;100.00;101607.09;4987626;28;20440;-75
2023/06/06 02:27:39;;;;;;;9.50;6.07;;;;;;;10.30;100.00;101617.78;4966824;28;20030;-75
2023/06/06 02:30:07;;;;;;;8.00;6.25;;;;;;;10.30;100.00;101623.97;4979535;28;20579;-74
2023/06/06 02:32:33;;;;;;;10.27;6.13;;;;;;;10.32;100.00;101632.69;4992208;28;20060;-75
2023/06/06 02:34:59;;;;;;;8.52;6.50;;;;;;;10.30;100.00;101632.00;4973404;28;20711;-74
2023/06/06 02:37:26;;;;;;;9.35;6.32;;;;;;;10.23;100.00;101637.97;4982003;28;20129;-75
2023/06/06 02:39:53;;;;;;;15.95;6.80;;;;;;;10.18;100.00;101618.88;4968548;28;20027;-74
2023/06/06 02:42:19;;;;;;;15.30;6.13;;;;;;;10.19;100.00;101615.22;4975004;28;20038;-75
2023/06/06 02:44:44;;;;;;;10.23;5.10;;;;;;;10.15;100.00;101615.50;4974460;28;20124;-75
2023/06/06 02:47:10;;;;;;;9.03;6.40;;;;;;;10.25;100.00;101625.34;4963991;28;20025;-75
2023/06/06 02:49:35;;;;;;;11.10;7.20;;;;;;;10.25;100.00;101631.50;4988120;28;20045;-74
2023/06/06 02:52:01;;;;;;;11.10;7.20;;;;;;;10.32;100.00;101637.16;4969679;28;20488;-74
2023/06/06 02:54:26;;;;;;;10.35;6.10;;;;;;;10.21;100.00;101639.94;4991680;28;20488;-76
2023/06/06 02:56:52;;;;;;;17.73;7.93;;;;;;;10.14;100.00;101634.31;4963832;28;20038;-75
2023/06/06 02:59:17;;;;;;;12.37;6.30;;;;;;;10.11;100.00;101629.25;4984765;28;20080;-74
2023/06/06 03:01:44;;;;;;;9.83;5.87;;;;;;;10.16;100.00;101637.69;4966089;28;20472;-75
2023/06/06 03:04:11;;;;;;;12.25;6.53;;;;;;;10.14;100.00;101629.81;4964078;28;20516;-75
2023/06/06 03:06:39;;;;;;;;;;;;;;;10.15;100.00;101636.84;4989344;28;20022;-75
2023/06/06 03:09:05;;;;;;;9.50;6.35;;;;;;;10.15;100.00;101625.31;4989502;28;19914;-75
2023/06/06 03:11:31;;;;;;;9.02;5.30;;;;;;;10.19;100.00;101626.75;4998219;28;20018;-75
2023/06/06 03:13:59;;;;;;;8.98;5.88;;;;;;;10.20;100.00;101632.91;4960495;28;20041;-75
2023/06/06 03:16:28;;;;;;;;;;;;;;;10.21;100.00;101629.25;5002380;28;20021;-75
2023/06/06 03:18:57;;;;;;;13.50;7.43;;;;;;;10.25;100.00;101625.34;4974322;28;19929;-75
2023/06/06 03:21:22;;;;;;;9.18;5.72;;;;;;;10.31;100.00;101640.84;4985229;28;20056;-75
2023/06/06 03:23:48;;;;;;;11.00;6.13;;;;;;;10.31;100.00;101635.50;4957009;28;20073;-75
2023/06/06 03:26:13;;;;;;;8.35;5.40;;;;;;;10.29;100.00;101637.47;4971025;28;20025;-75
2023/06/06 03:28:40;;;;;;;13.18;6.30;;;;;;;10.30;100.00;101633.78;4992559;28;20092;-76
2023/06/06 03:31:10;;;;;;;11.57;6.63;;;;;;;10.33;100.00;101638.88;4989189;28;20044;-75
2023/06/06 03:33:45;;;;;;;10.07;6.18;;;;;;;10.33;100.00;101638.88;4953571;28;20038;-75
2023/06/06 03:36:11;;;;;;;9.57;6.30;;;;;;;10.34;100.00;101636.03;4972596;28;20262;-75
2023/06/06 03:38:37;;;;;;;;;;;;;;;10.39;100.00;101638.31;4977130;28;20029;-76
2023/06/06 03:41:03;;;;;;;;;;;;;;;10.44;100.00;101638.75;4957009;28;19922;-75
2023/06/06 03:43:31;;;;;;;8.90;6.35;;;;;;;10.47;100.00;101638.47;4991864;28;19917;-75
2023/06/06 03:45:57;;;;;;;12.13;6.70;;;;;;;10.50;100.00;101629.31;4971965;28;20113;-75
2023/06/06 03:48:23;;;;;;;7.18;5.28;;;;;;;10.57;100.00;101641.97;4970924;28;20114;-75
2023/06/06 03:50:48;;;;;;;8.77;5.90;;;;;;;10.67;100.00;101638.44;4993445;28;20117;-75
2023/06/06 03:53:13;;;;;;;10.67;6.87;;;;;;;10.77;100.00;101639.31;4992853;28;20029;-75
2023/06/06 03:55:40;;;;;;;10.10;6.23;;;;;;;10.87;100.00;101640.13;4953523;28;20407;-75
2023/06/06 03:58:07;;;;;;;;;;;;;;;11.01;100.00;101654.88;4969371;28;20022;-75
2023/06/06 04:00:32;;;;;;;11.93;6.18;;;;;;;11.07;100.00;101653.44;4953481;28;20378;-75
2023/06/06 04:02:59;;;;;;;;;;;;;;;11.16;100.00;101656.09;4950621;28;20034;-76
2023/06/06 04:05:24;;;;;;;12.38;7.32;;;;;;;11.27;100.00;101671.13;4985310;28;20526;-75
2023/06/06 04:07:49;;;;;;;12.20;7.50;;;;;;;11.35;100.00;101671.25;4970843;28;20718;-75
2023/06/06 04:10:16;;;;;;;12.05;7.25;;;;;;;11.44;100.00;101661.50;4949602;28;20023;-75
2023/06/06 04:12:41;;;;;;;10.53;6.57;;;;;;;11.56;100.00;101671.03;4972656;28;20128;-76
2023/06/06 04:15:10;;;;;;;10.02;6.55;;;;;;;11.68;100.00;101661.00;4965730;28;20031;-75
2023/06/06 04:17:35;;;;;;;13.65;7.43;;;;;;;11.83;100.00;101664.88;4971053;28;20138;-75
2023/06/06 04:20:03;;;;;;;10.40;6.40;;;;;;;11.95;100.00;101664.72;4999708;28;20108;-75
2023/06/06 04:22:29;;;;;;;11.07;7.43;;;;;;;12.10;100.00;101663.19;4962002;28;20109;-76
2023/06/06 04:24:54;;;;;;;21.70;9.60;;;;;;;12.12;100.00;101661.22;4965179;28;20541;-75
2023/06/06 04:27:23;;;;;;;14.30;7.97;;;;;;;12.24;100.00;101669.88;4956170;28;20033;-75
2023/06/06 04:29:50;;;;;;;18.20;9.77;;;;;;;12.33;100.00;101685.03;4974365;28;20037;-75
2023/06/06 04:32:18;;;;;;;19.15;8.73;;;;;;;12.54;100.00;101692.78;4981297;28;20030;-75
2023/06/06 04:34:45;;;;;;;16.58;9.07;;;;;;;12.63;100.00;101685.69;4968149;28;20023;-75
2023/06/06 04:37:14;;;;;;;16.08;9.50;;;;;;;12.83;100.00;101697.94;4964900;28;20021;-75
2023/06/06 04:39:40;;;;;;;16.20;8.88;;;;;;;12.97;100.00;101691.19;5003688;28;20109;-75
2023/06/06 04:42:07;;;;;;;14.50;8.30;;;;;;;13.20;100.00;101685.31;4975733;28;20126;-76
2023/06/06 04:44:41;;;;;;;;;;;;;;;13.34;100.00;101674.03;4997286;28;20041;-75
2023/06/06 04:47:08;;;;;;;18.70;9.00;;;;;;;13.44;100.00;101649.81;4979979;28;19925;-75
2023/06/06 04:49:38;;;;;;;10.25;6.95;;;;;;;13.62;100.00;101650.53;4987452;28;20045;-76
2023/06/06 04:52:05;;;;;;;16.02;8.38;;;;;;;13.77;100.00;101636.56;4986259;28;20035;-75
2023/06/06 04:54:38;;;;;;;12.95;8.50;;;;;;;13.85;100.00;101613.25;4997389;28;20034;-75
2023/06/06 04:57:06;;;;;;;14.50;9.30;;;;;;;13.76;100.00;101610.69;4974044;28;20050;-75
2023/06/06 04:59:37;;;;;;;17.42;9.07;;;;;;;13.89;100.00;101613.78;4983240;28;20022;-75
2023/06/06 05:02:03;;;;;;;16.88;9.02;;;;;;;14.20;100.00;101635.50;4996004;28;20499;-76
2023/06/06 05:04:31;;;;;;;17.23;7.70;;;;;;;14.42;100.00;101630.47;4992289;28;20023;-75
2023/06/06 05:06:58;;;;;;;19.30;9.38;;;;;;;14.51;100.00;101608.00;4981993;28;20053;-75
2023/06/06 05:09:24;;;;;;;17.02;8.65;;;;;;;14.47;100.00;101590.50;4963191;28;20644;-75
2023/06/06 05:11:52;;;;;;;21.02;8.88;;;;;;;14.72;100.00;101588.69;4963464;28;20165;-75
2023/06/06 05:14:23;;;;;;;20.65;10.63;;;;;;;15.02;100.00;101605.16;4962844;28;20066;-75
2023/06/06 05:16:56;;;;;;;16.92;9.38;;;;;;;15.05;100.00;101567.16;4965890;28;20037;-76
2023/06/06 05:19:21;;;;;;;17.80;9.77;;;;;;;15.16;100.00;101566.78;4980210;28;20534;-75
2023/06/06 05:21:47;;;;;;;21.67;10.07;;;;;;;15.13;100.00;101538.38;4979791;28;20091;-76
2023/06/06 05:24:14;;;;;;;15.30;7.20;;;;;;;15.58;100.00;101558.38;4964206;28;20077;-76
2023/06/06 05:26:40;;;;;;;13.45;7.60;;;;;;;15.85;100.00;101545.50;4972115;28;20030;-75
2023/06/06 05:29:05;;;;;;;12.50;7.88;;;;;;;16.04;100.00;101506.47;4995686;28;20026;-75
2023/06/06 05:31:33;;;;;;;15.37;8.83;;;;;;;16.42;100.00;101482.25;5004094;28;20507;-76
2023/06/06 05:33:59;;;;;;;16.02;8.73;;;;;;;16.59;100.00;101410.13;4985979;28;20047;-75
2023/06/06 05:36:25;;;;;;;12.07;7.07;;;;;;;17.46;100.00;101352.66;4973529;28;20028;-76
2023/06/06 05:38:50;;;;;;;13.15;7.50;;;;;;;18.29;100.00;101293.47;4979154;28;20034;-76
2023/06/06 05:41:17;;;;;;;13.10;7.53;;;;;;;18.75;100.00;101171.97;4974531;28;20125;-76
2023/06/06 05:43:47;;;;;;;11.38;7.28;;;;;;;19.24;100.00;101041.84;4990497;28;20037;-76
2023/06/06 05:46:13;;;;;;;13.63;6.97;;;;;;;20.11;100.00;100961.88;4993436;28;20040;-76
2023/06/06 05:48:39;;;;;;;9.55;5.88;;;;;;;20.49;100.00;100811.75;4969289;28;20038;-76
2023/06/06 05:51:05;;;;;;;10.65;7.05;;;;;;;20.61;100.00;100687.09;4973015;28;20068;-76
2023/06/06 05:53:34;;;;;;;11.05;7.15;;;;;;;20.81;100.00;100637.94;4999636;28;20076;-76
2023/06/06 05:56:00;;;;;;;12.35;6.70;;;;;;;21.31;100.00;100568.84;4990765;28;20467;-76
2023/06/06 05:58:25;;;;;;;12.65;6.32;;;;;;;21.41;100.00;100499.31;4972780;28;20141;-76
2023/06/06 06:00:51;;;;;;;11.13;6.57;;;;;;;21.83;100.00;100555.28;4995788;28;20029;-76
2023/06/06 06:03:16;;;;;;;9.65;6.13;;;;;;;;;;4995665;28;20694;-76
2023/06/06 06:05:42;;;;;;;12.63;6.10;;;;;;;22.70;95.78;100497.81;4972612;28;20030;-76
2023/06/06 06:08:07;;;;;;;13.07;7.68;;;;;;;22.34;92.64;100391.19;4973817;28;20030;-74
2023/06/06 06:10:34;;;;;;;14.90;7.35;;;;;;;22.02;92.20;100428.16;4975007;28;20018;-74
2023/06/06 06:13:00;;;;;;;12.60;6.65;;;;;;;22.94;91.26;100609.22;4996809;28;20034;-74
2023/06/06 06:15:28;;;;;;;12.70;7.43;;;;;;;22.42;88.58;100433.47;4990122;28;20026;-73
2023/06/06 06:17:53;;;;;;;11.82;6.60;;;;;;;22.88;87.32;100507.63;4995138;28;20488;-73
2023/06/06 06:20:19;;;;;;;15.83;6.80;;;;;;;22.35;86.41;100457.28;4978151;28;20042;-73
2023/06/06 06:22:46;;;;;;;10.77;6.57;;;;;;;22.64;86.48;100561.41;4972263;28;20125;-74
2023/06/06 06:25:16;;;;;;;13.75;7.03;;;;;;;22.48;86.18;100576.66;4977689;28;20049;-74
2023/06/06 06:27:47;;;;;;;11.57;6.22;;;;;;;22.77;85.71;100680.81;4995020;28;20029;-73
2023/06/06 06:30:14;;;;;;;14.40;7.97;;;;;;;22.09;86.20;100627.28;4998832;28;20573;-73
2023/06/06 06:32:41;;;;;;;9.07;6.45;;;;;;;22.43;87.04;100777.00;4971854;28;20045;-73
2023/06/06 06:35:11;;;;;;;14.10;7.15;;;;;;;22.82;85.99;100783.50;4973544;28;20034;-73
2023/06/06 06:37:37;;;;;;;12.43;7.97;;;;;;;23.44;83.43;100751.94;4999742;28;20074;-73
2023/06/06 06:40:10;;;;;;;16.92;8.25;;;;;;;23.25;82.68;100694.16;4990362;28;20030;-73
2023/06/06 06:42:40;;;;;;;12.93;7.30;;;;;;;23.13;82.08;100658.84;4994519;28;20572;-73
2023/06/06 06:45:19;;;;;;;13.80;7.05;;;;;;;23.07;82.34;100726.00;4978319;28;20034;-73
2023/06/06 06:47:45;;;;;;;11.80;6.60;;;;;;;22.76;83.96;100809.78;4971532;28;20030;-73
2023/06/06 06:50:11;;;;;;;12.03;7.33;;;;;;;23.18;81.65;100703.31;5001983;28;20029;-73
2023/06/06 06:52:37;;;;;;;12.88;7.38;;;;;;;22.63;83.20;100768.44;4976034;28;20038;-73
2023/06/06 06:55:04;;;;;;;16.23;6.97;;;;;;;23.17;82.99;100880.56;4991328;28;20033;-73
2023/06/06 06:57:30;;;;;;;16.48;8.30;;;;;;;22.68;81.42;100643.34;4984746;28;20038;-73
2023/06/06 06:59:56;;;;;;;12.65;6.90;;;;;;;22.75;82.18;100770.03;4979274;28;20057;-73
2023/06/06 07:02:27;;;;;;;12.30;7.47;;;;;;;22.25;84.48;100889.50;4994568;28;20030;-73
2023/06/06 07:04:57;;;;;;;14.70;8.18;;;;;;;22.74;83.38;100893.56;5025178;23;20080;-83
2023/06/06 07:07:24;;;;;;;14.25;6.78;;;;;;;22.59;83.86;100916.91;5067173;28;20033;-84
2023/06/06 07:09:51;;;;;;;14.60;6.82;;;;;;;22.93;82.35;100868.91;5050935;28;20017;-86
2023/06/06 07:12:17;;;;;;;14.98;6.82;;;;;;;23.53;80.64;100862.16;5059219;28;20029;-86
2023/06/06 07:14:42;;;;;;;12.52;6.70;;;;;;;23.47;79.72;100784.13;5065826;28;20501;-86
2023/06/06 07:17:08;;;;;;;15.00;5.82;;;;;;;23.57;79.77;100839.63;5033817;28;20064;-86
2023/06/06 07:19:36;;;;;;;16.00;7.32;;;;;;;23.01;78.56;100626.25;5057190;28;20017;-86
2023/06/06 07:22:05;;;;;;;13.18;6.53;;;;;;;23.46;78.84;100785.19;5066293;28;20044;-84
2023/06/06 07:24:31;;;;;;;10.10;5.43;;;;;;;24.02;76.81;100747.91;5036294;28;20049;-84
2023/06/06 07:26:57;;;;;;;10.32;5.88;;;;;;;23.96;74.50;100519.91;5046746;28;20064;-87
2023/06/06 07:29:22;;;;;;;13.23;6.93;;;;;;;23.54;75.31;100551.28;5021705;28;20036;-88
2023/06/06 07:31:49;;;;;;;12.55;5.68;;;;;;;23.61;74.99;100591.97;5046254;28;20502;-88
2023/06/06 07:34:14;;;;;;;15.32;6.72;;;;;;;24.07;74.12;100610.81;5058588;28;20100;-88
2023/06/06 07:36:40;;;;;;;10.13;5.83;;;;;;;23.71;73.12;100444.13;5046508;28;20671;-88
2023/06/06 07:39:06;;;;;;;11.95;5.88;;;;;;;23.68;73.26;100478.16;5045809;28;20782;-89
2023/06/06 07:41:34;;;;;;;12.60;6.10;;;;;;;23.77;72.90;100522.16;5034945;28;20086;-88
2023/06/06 07:44:01;;;;;;;15.27;6.53;;;;;;;23.96;72.48;100526.19;5030823;28;20041;-88
2023/06/06 07:46:27;;;;;;;9.77;6.35;;;;;;;23.61;73.10;100526.59;5032818;28;20061;-89
2023/06/06 07:48:52;;;;;;;19.23;6.87;;;;;;;23.66;73.18;100572.16;5033498;28;20060;-88
2023/06/06 07:51:19;;;;;;;11.63;5.73;;;;;;;23.90;73.40;100643.59;5048832;28;20314;-88
2023/06/06 07:53:44;;;;;;;14.60;6.15;;;;;;;24.18;73.10;100672.59;5055593;28;20059;-90
2023/06/06 07:56:13;;;;;;;13.07;5.90;;;;;;;24.05;72.47;100577.53;5037830;28;20039;-88
2023/06/06 07:58:46;;;;;;;14.43;7.57;;;;;;;23.59;72.27;100518.66;5061725;28;20037;-88
2023/06/06 08:01:12;;;;;;;9.27;5.65;;;;;;;24.07;72.74;100665.34;5051880;28;20094;-89
2023/06/06 08:03:38;;;;;;;10.48;5.70;;;;;;;23.54;73.73;100663.00;5048311;28;20386;-88
2023/06/06 08:06:04;;;;;;;9.15;5.32;;;;;;;23.69;72.75;100591.53;5043647;28;20124;-88
2023/06/06 08:08:29;;;;;;;11.13;5.75;;;;;;;24.02;71.92;100593.34;5055871;28;20017;-88
2023/06/06 08:10:55;;;;;;;10.45;5.80;;;;;;;24.11;69.83;100443.69;5029201;28;20033;-88
2023/06/06 08:13:20;;;;;;;10.25;4.78;;;;;;;23.81;70.62;100457.88;5043250;28;20055;-89
2023/06/06 08:15:46;;;;;;;10.70;5.40;;;;;;;24.34;68.87;100414.41;5055301;28;20055;-89
2023/06/06 08:18:14;;;;;;;11.43;6.22;;;;;;;24.27;68.87;100417.38;5036031;28;20455;-87
2023/06/06 08:20:40;;;;;;;16.15;6.65;;;;;;;24.09;68.03;100293.19;5028976;28;20033;-86
2023/06/06 08:23:06;;;;;;;11.10;5.80;;;;;;;24.04;67.65;100224.97;5035613;28;20036;-87
2023/06/06 08:25:31;;;;;;;12.90;5.53;;;;;;;24.08;66.24;100114.28;5037175;28;20049;-87
2023/06/06 08:27:58;;;;;;;8.98;5.20;;;;;;;23.64;67.49;100220.06;5031246;28;20099;-87
2023/06/06 08:30:24;;;;;;;13.00;5.75;;;;;;;24.36;66.44;100312.13;5055238;28;20064;-87
2023/06/06 08:32:50;;;;;;;18.27;6.43;;;;;;;24.25;65.04;100083.25;5055494;28;20048;-87
2023/06/06 08:35:15;;;;;;;;;;;;;;;24.87;66.20;100411.78;5044188;28;20032;-88
2023/06/06 08:37:40;;;;;;;13.27;5.75;;;;;;;24.86;65.08;100329.03;5051841;28;20435;-87
2023/06/06 08:40:08;;;;;;;12.60;5.37;;;;;;;25.26;64.87;100377.53;5060732;28;20029;-88
2023/06/06 08:42:40;;;;;;;17.98;8.35;;;;;;;24.55;63.25;99949.63;5037778;28;20303;-88
2023/06/06 08:45:06;;;;;;;10.20;5.05;;;;;;;25.24;64.11;100327.81;5049230;23;20909;-78
2023/06/06 08:47:32;;;;;;;11.70;6.00;;;;;;;25.13;63.18;100126.75;4983739;28;20029;-78
2023/06/06 08:49:59;;;;;;;15.45;6.25;;;;;;;25.18;63.12;100184.13;4974096;28;20606;-77
2023/06/06 08:52:27;;;;;;;10.70;5.90;;;;;;;25.10;63.35;100170.16;4988839;28;20091;-77
2023/06/06 08:54:54;;;;;;;14.68;5.72;;;;;;;24.77;64.03;100175.88;4987858;28;20478;-77
2023/06/06 08:57:21;;;;;;;11.70;6.28;;;;;;;25.34;62.62;100170.47;4998650;28;20049;-78
2023/06/06 08:59:46;;;;;;;15.95;6.43;;;;;;;25.53;61.99;100237.13;5016586;28;20117;-78
2023/06/06 09:02:12;;;;;;;13.15;6.38;;;;;;;25.89;60.28;100100.38;4986494;28;20105;-79
2023/06/06 09:04:38;;;;;;;19.52;5.60;;;;;;;25.76;60.42;100084.56;5018905;28;20039;-78
2023/06/06 09:07:12;;;;;;;14.77;5.97;;;;;;;25.69;61.68;100227.81;4996499;28;20116;-78
2023/06/06 09:09:40;;;;;;;14.63;5.43;;;;;;;25.83;60.97;100176.09;5002871;28;20389;-77
2023/06/06 09:12:07;;;;;;;8.00;4.38;;;;;;;25.99;60.09;100088.56;4984505;28;20721;-78
2023/06/06 09:14:32;;;;;;;10.38;4.80;;;;;;;26.29;59.83;100166.91;4985943;28;20065;-78
2023/06/06 09:16:59;;;;;;;10.70;4.95;;;;;;;26.35;59.52;100162.25;5020926;28;20115;-77
2023/06/06 09:19:25;;;;;;;14.90;5.68;;;;;;;26.56;58.82;100180.22;5008269;28;20065;-78
2023/06/06 09:21:50;;;;;;;12.13;6.35;;;;;;;26.52;58.30;100034.06;5005581;28;20103;-78
2023/06/06 09:24:17;;;;;;;11.48;5.45;;;;;;;26.81;57.09;100034.13;5001285;28;20048;-77
2023/06/06 09:26:42;;;;;;;13.60;5.10;;;;;;;26.98;57.34;100129.56;5002418;28;20169;-78
2023/06/06 09:29:14;;;;;;;9.65;4.85;;;;;;;26.97;56.43;99970.97;5001479;28;20056;-77
2023/06/06 09:31:40;;;;;;;16.58;5.93;;;;;;;27.04;55.91;99922.97;5013252;28;20594;-78
2023/06/06 09:34:10;;;;;;;11.45;5.65;;;;;;;26.65;55.64;99855.50;4999120;28;20209;-77
2023/06/06 09:36:40;;;;;;;11.38;5.38;;;;;;;26.37;55.33;99753.16;5021969;28;20141;-79
2023/06/06 09:39:11;;;;;;;8.90;4.47;;;;;;;26.99;55.32;99963.28;5008189;28;20802;-79
2023/06/06 09:41:47;;;;;;;9.85;4.78;;;;;;;27.33;55.34;100048.97;5027502;28;20083;-78
2023/06/06 09:44:28;;;;;;;7.38;4.25;;;;;;;27.62;53.36;99900.03;5000125;28;20034;-76
2023/06/06 09:47:01;;;;;;;10.48;5.35;;;;;;;27.46;53.37;99852.81;5019277;28;20061;-77
2023/06/06 09:49:36;;;;;;;10.35;5.72;;;;;;;27.26;53.17;99766.25;4984010;28;20540;-77
2023/06/06 09:52:03;;;;;;;9.18;4.80;;;;;;;27.56;52.57;99810.75;4988218;28;20053;-79
2023/06/06 09:54:29;;;;;;;8.13;4.45;;;;;;;27.36;52.34;99710.47;4997010;28;20400;-77
2023/06/06 09:56:55;;;;;;;10.18;4.72;;;;;;;27.35;52.00;99753.53;4971207;28;20048;-77
2023/06/06 09:59:25;;;;;;;10.57;5.63;;;;;;;27.70;51.38;99712.91;4979872;28;20061;-78
2023/06/06 10:01:55;;;;;;;8.23;4.70;;;;;;;27.77;51.29;99779.16;4972581;28;20034;-78
2023/06/06 10:04:21;;;;;;;8.27;4.60;;;;;;;26.66;51.50;99505.94;5004250;28;20040;-78
2023/06/06 10:06:47;;;;;;;9.93;4.75;;;;;;;27.33;52.52;99837.13;5022570;28;20033;-78
2023/06/06 10:09:15;;;;;;;12.25;5.13;;;;;;;27.19;50.90;99606.91;5004031;28;20116;-77
2023/06/06 10:11:40;;;;;;;9.43;4.63;;;;;;;27.36;51.57;99744.16;4981267;28;20022;-78
2023/06/06 10:14:05;;;;;;;11.82;4.72;;;;;;;27.50;51.04;99691.34;5013647;28;20044;-79
2023/06/06 10:16:33;;;;;;;;;;;;;;;27.48;51.20;99686.16;5002180;28;20029;-78
2023/06/06 10:18:59;;;;;;;8.95;5.07;;;;;;;27.75;50.96;99800.56;4986109;28;20004;-77
2023/06/06 10:21:26;;;;;;;11.70;5.03;;;;;;;27.73;50.35;99693.09;4980965;28;20017;-78
2023/06/06 10:23:52;;;;;;;8.60;4.05;;;;;;;27.66;50.40;99646.09;5022889;28;20037;-77
2023/06/06 10:26:24;;;;;;;10.75;4.10;;;;;;;27.03;50.57;99493.25;5022518;28;20025;-77
2023/06/06 10:29:01;;;;;;;11.35;4.95;;;;;;;27.63;50.42;99665.88;5004923;28;20931;-78
2023/06/06 10:31:35;;;;;;;9.20;4.50;;;;;;;27.99;50.08;99784.00;4996682;28;20130;-78
2023/06/06 10:34:07;;;;;;;9.00;4.40;;;;;;;28.44;48.43;99695.59;4988022;28;20104;-78
2023/06/06 10:36:43;;;;;;;9.95;4.07;;;;;;;28.53;48.75;99734.94;5001643;28;20033;-77
2023/06/06 10:39:18;;;;;;;10.57;4.43;;;;;;;28.85;48.46;99754.34;5004584;28;20376;-77
2023/06/06 10:41:59;;;;;;;10.40;4.70;;;;;;;27.96;49.26;99586.31;5015540;28;20391;-77
2023/06/06 10:44:43;;;;;;;8.68;4.57;;;;;;;27.43;48.66;99345.59;4994870;28;20030;-78
2023/06/06 10:47:20;;;;;;;9.00;4.78;;;;;;;27.77;48.59;99504.94;5000147;28;20482;-78
2023/06/06 10:50:08;;;;;;;10.68;4.88;;;;;;;28.38;48.31;99696.81;4995465;28;20037;-78
2023/06/06 10:52:49;;;;;;;7.82;4.10;;;;;;;28.11;49.57;99725.88;4993830;28;20033;-78
2023/06/06 10:55:16;;;;;;;8.60;4.50;;;;;;;28.67;49.22;99907.94;5019072;28;20479;-77
2023/06/06 10:58:04;;;;;;;10.23;4.15;;;;;;;28.60;47.44;99537.66;5003679;28;20026;-77
2023/06/06 11:00:34;;;;;;;10.68;4.05;;;;;;;28.45;48.31;99656.03;4996287;28;20029;-77
2023/06/06 11:03:12;;;;;;;7.25;4.43;;;;;;;29.03;47.04;99674.50;5003978;28;20033;-77
2023/06/06 11:05:59;;;;;;;9.05;5.10;;;;;;;25.23;51.50;99080.69;5021623;28;20037;-77
2023/06/06 11:08:45;;;;;;;9.35;4.10;;;;;;;26.69;49.97;99431.41;4988130;28;20021;-77
2023/06/06 11:11:26;;;;;;;7.75;4.07;;;;;;;26.06;48.73;98957.75;4978947;28;20042;-77
2023/06/06 11:13:53;;;;;;;8.75;3.92;;;;;;;25.28;50.67;99004.13;4979043;28;20042;-77
2023/06/06 11:16:37;;;;;;;7.82;3.50;;;;;;;26.40;49.37;99339.41;4970169;28;20034;-78
2023/06/06 11:19:23;;;;;;;7.13;4.22;;;;;;;27.02;48.32;99382.06;4999967;28;20038;-77
2023/06/06 11:21:56;;;;;;;6.85;3.63;;;;;;;27.22;48.07;99383.59;5012850;28;20044;-78
2023/06/06 11:24:23;;;;;;;5.18;4.15;;;;;;;27.06;48.52;99317.34;4975194;28;20040;-78